createdAt,value
2018-02-17T00:00:55.785Z,4.50
2018-02-17T00:03:24.096Z,4.50
2018-02-17T00:05:53.170Z,4.50
2018-02-17T00:08:21.499Z,4.50
2018-02-17T00:10:50.651Z,4.50
2018-02-17T00:13:18.965Z,4.50
2018-02-17T00:15:47.277Z,4.60
2018-02-17T00:18:15.592Z,4.60
2018-02-17T00:20:43.922Z,4.60
2018-02-17T00:23:13.008Z,4.70
2018-02-17T00:25:41.403Z,4.60
2018-02-17T00:28:10.482Z,4.60
2018-02-17T00:30:38.794Z,4.60
2018-02-17T00:33:07.889Z,4.60
2018-02-17T00:35:36.954Z,4.60
2018-02-17T00:38:05.271Z,4.60
2018-02-17T00:40:33.593Z,4.50
2018-02-17T00:43:01.899Z,4.50
2018-02-17T00:45:30.209Z,4.50
2018-02-17T00:47:58.492Z,4.50
2018-02-17T00:50:26.782Z,4.40
2018-02-17T00:52:56.629Z,4.30
2018-02-17T00:55:25.694Z,4.30
2018-02-17T00:57:53.994Z,4.30
2018-02-17T01:00:23.046Z,4.20
2018-02-17T01:02:51.360Z,4.20
2018-02-17T01:05:19.676Z,4.20
2018-02-17T01:07:48.093Z,4.20
2018-02-17T01:10:17.364Z,4.20
2018-02-17T01:12:45.694Z,4.10
2018-02-17T01:15:14.047Z,4.20
2018-02-17T01:17:42.368Z,4.20
2018-02-17T01:20:10.684Z,4.10
2018-02-17T01:22:39.737Z,4.10
2018-02-17T01:25:08.058Z,4.00
2018-02-17T01:27:37.138Z,4.00
2018-02-17T01:30:05.465Z,4.00
2018-02-17T01:32:33.801Z,4.00
2018-02-17T01:35:02.184Z,4.00
2018-02-17T01:37:30.622Z,4.00
2018-02-17T01:39:58.963Z,4.00
2018-02-17T01:42:27.280Z,4.00
2018-02-17T01:44:56.342Z,4.10
2018-02-17T01:47:26.159Z,4.10
2018-02-17T01:49:55.242Z,4.20
2018-02-17T01:52:23.574Z,4.10
2018-02-17T01:54:52.652Z,4.20
2018-02-17T01:57:21.862Z,4.10
2018-02-17T01:59:50.969Z,4.10
2018-02-17T02:02:20.052Z,4.10
2018-02-17T02:04:48.356Z,4.00
2018-02-17T02:07:17.434Z,4.00
2018-02-17T02:09:46.620Z,3.90
2018-02-17T02:12:15.654Z,3.90
2018-02-17T02:14:44.741Z,3.90
2018-02-17T02:17:13.829Z,3.90
2018-02-17T02:19:42.140Z,3.90
2018-02-17T02:22:10.460Z,3.90
2018-02-17T02:24:38.784Z,3.90
2018-02-17T02:27:07.857Z,3.80
2018-02-17T02:29:36.167Z,3.80
2018-02-17T02:32:05.249Z,3.90
2018-02-17T02:34:33.580Z,3.80
2018-02-17T02:37:01.879Z,3.80
2018-02-17T02:39:30.188Z,3.80
2018-02-17T02:41:58.496Z,3.80
2018-02-17T02:44:26.816Z,3.80
2018-02-17T02:46:55.731Z,3.80
2018-02-17T02:49:24.051Z,3.90
2018-02-17T02:51:53.136Z,3.90
2018-02-17T02:54:21.434Z,3.90
2018-02-17T02:56:50.526Z,3.90
2018-02-17T02:59:19.609Z,3.90
2018-02-17T03:01:47.975Z,3.90
2018-02-17T03:04:16.320Z,3.90
2018-02-17T03:06:44.720Z,3.90
2018-02-17T03:09:13.010Z,3.90
2018-02-17T03:11:42.061Z,3.90
2018-02-17T03:14:11.157Z,4.00
2018-02-17T03:16:40.306Z,4.00
2018-02-17T03:19:08.638Z,4.00
2018-02-17T03:21:37.015Z,4.00
2018-02-17T03:24:05.342Z,4.00
2018-02-17T03:26:33.643Z,4.10
2018-02-17T03:29:01.967Z,4.10
2018-02-17T03:31:31.048Z,4.10
2018-02-17T03:33:59.349Z,4.10
2018-02-17T03:36:28.439Z,4.10
2018-02-17T03:38:56.912Z,4.10
2018-02-17T03:41:25.272Z,4.10
2018-02-17T03:43:53.627Z,4.00
2018-02-17T03:46:21.929Z,4.00
2018-02-17T03:48:50.246Z,4.00
2018-02-17T03:51:18.578Z,3.90
2018-02-17T03:53:46.883Z,3.90
2018-02-17T03:56:15.209Z,3.90
2018-02-17T03:58:44.284Z,3.90
2018-02-17T04:01:12.617Z,3.90
2018-02-17T04:03:40.938Z,3.90
2018-02-17T04:06:09.303Z,3.80
2018-02-17T04:08:37.718Z,3.90
2018-02-17T04:11:06.042Z,3.90
2018-02-17T04:13:34.352Z,3.90
2018-02-17T04:16:02.652Z,3.90
2018-02-17T04:18:30.966Z,3.90
2018-02-17T04:21:00.044Z,3.90
2018-02-17T04:23:28.384Z,3.90
2018-02-17T04:25:56.691Z,3.90
2018-02-17T04:28:25.002Z,3.80
2018-02-17T04:30:54.083Z,3.90
2018-02-17T04:33:22.429Z,3.90
2018-02-17T04:35:50.732Z,3.90
2018-02-17T04:38:19.043Z,3.90
2018-02-17T04:40:48.631Z,3.90
2018-02-17T04:43:19.919Z,3.90
2018-02-17T04:49:02.106Z,3.90
2018-02-17T04:54:46.588Z,3.90
2018-02-17T04:57:20.349Z,3.90
2018-02-17T04:59:54.915Z,3.90
2018-02-17T05:02:29.504Z,3.90
2018-02-17T05:07:55.959Z,3.90
2018-02-17T05:10:25.034Z,3.90
2018-02-17T05:12:53.336Z,3.90
2018-02-17T05:15:21.646Z,3.90
2018-02-17T05:17:50.405Z,3.90
2018-02-17T05:20:23.094Z,3.90
2018-02-17T05:22:53.558Z,4.00
2018-02-17T05:25:27.775Z,4.00
2018-02-17T05:27:56.121Z,4.00
2018-02-17T05:30:25.481Z,4.00
2018-02-17T05:33:01.206Z,4.00
2018-02-17T05:35:31.832Z,4.00
2018-02-17T05:38:00.922Z,4.00
2018-02-17T05:40:31.803Z,4.00
2018-02-17T05:43:00.159Z,4.00
2018-02-17T05:45:28.775Z,4.00
2018-02-17T05:48:01.511Z,4.00
2018-02-17T05:50:31.497Z,4.10
2018-02-17T05:52:59.821Z,4.10
2018-02-17T05:55:28.911Z,4.10
2018-02-17T05:57:58.068Z,4.20
2018-02-17T06:00:26.362Z,4.10
2018-02-17T06:02:54.698Z,4.20
2018-02-17T06:05:23.051Z,4.20
2018-02-17T06:07:51.422Z,4.20
2018-02-17T06:10:19.765Z,4.20
2018-02-17T06:12:48.055Z,4.30
2018-02-17T06:15:16.357Z,4.30
2018-02-17T06:17:44.691Z,4.30
2018-02-17T06:20:13.778Z,4.40
2018-02-17T06:22:42.864Z,4.40
2018-02-17T06:25:11.964Z,4.40
2018-02-17T06:27:41.116Z,4.30
2018-02-17T06:30:09.453Z,4.30
2018-02-17T06:32:38.547Z,4.40
2018-02-17T06:35:06.918Z,4.40
2018-02-17T06:37:35.295Z,4.30
2018-02-17T06:40:03.610Z,4.40
2018-02-17T06:42:32.695Z,4.40
2018-02-17T06:45:01.802Z,4.40
2018-02-17T06:47:30.882Z,4.40
2018-02-17T06:49:59.225Z,4.40
2018-02-17T06:52:27.532Z,4.40
2018-02-17T06:54:55.853Z,4.40
2018-02-17T06:57:24.909Z,4.40
2018-02-17T06:59:53.341Z,4.40
2018-02-17T07:02:21.645Z,4.40
2018-02-17T07:04:50.024Z,4.40
2018-02-17T07:07:18.318Z,4.40
2018-02-17T07:09:46.632Z,4.40
2018-02-17T07:12:14.978Z,4.40
2018-02-17T09:17:56.484Z,8.50
2018-02-17T09:20:24.836Z,8.60
2018-02-17T09:22:53.144Z,8.70
2018-02-17T09:25:21.470Z,8.90
2018-02-17T09:27:50.531Z,9.00
2018-02-17T09:30:19.982Z,8.90
2018-02-17T09:32:49.092Z,9.20
2018-02-17T09:35:18.072Z,9.10
2018-02-17T09:37:47.136Z,9.20
2018-02-17T09:40:15.450Z,9.20
2018-02-17T09:42:44.522Z,9.30
2018-02-17T09:45:12.910Z,9.30
2018-02-17T09:47:41.232Z,9.40
2018-02-17T09:50:09.526Z,9.50
2018-02-17T09:52:37.828Z,9.60
2018-02-17T09:55:06.138Z,9.70
2018-02-17T09:57:34.520Z,9.80
2018-02-17T10:00:02.859Z,9.90
2018-02-17T10:02:31.178Z,10.00
2018-02-17T10:04:59.500Z,10.00
2018-02-17T10:07:27.817Z,10.10
2018-02-17T10:09:56.164Z,10.20
2018-02-17T10:12:24.510Z,10.30
2018-02-17T10:14:52.851Z,10.40
2018-02-17T10:17:21.246Z,10.50
2018-02-17T10:19:49.605Z,10.60
2018-02-17T10:22:17.913Z,10.70
2018-02-17T10:24:46.284Z,10.80
2018-02-17T10:27:14.638Z,10.70
2018-02-17T10:29:42.943Z,10.70
2018-02-17T10:32:11.253Z,10.60
2018-02-17T10:34:39.635Z,10.60
2018-02-17T10:37:08.212Z,10.60
2018-02-17T10:39:36.538Z,10.60
2018-02-17T10:42:05.611Z,10.50
2018-02-17T10:44:33.924Z,10.60
2018-02-17T10:47:02.243Z,10.50
2018-02-17T10:49:30.648Z,10.50
2018-02-17T10:51:59.809Z,10.40
2018-02-17T10:54:28.143Z,10.40
2018-02-17T10:56:56.543Z,10.30
2018-02-17T10:59:25.627Z,10.40
2018-02-17T11:01:54.726Z,10.30
2018-02-17T11:04:23.189Z,10.30
2018-02-17T11:06:51.523Z,10.40
2018-02-17T11:09:19.839Z,10.40
2018-02-17T11:11:48.155Z,10.50
2018-02-17T11:14:16.463Z,10.70
2018-02-17T11:16:44.786Z,11.00
2018-02-17T11:19:13.101Z,11.20
2018-02-17T11:21:42.187Z,11.60
2018-02-17T11:24:10.508Z,11.60
2018-02-17T11:26:38.812Z,11.80
2018-02-17T11:29:07.142Z,11.90
2018-02-17T11:31:36.255Z,12.00
2018-02-17T11:34:05.370Z,12.00
2018-02-17T11:36:33.714Z,12.00
2018-02-17T11:39:02.083Z,12.00
2018-02-17T11:41:30.419Z,11.90
2018-02-17T16:40:22.679Z,6.50
2018-02-17T16:42:51.020Z,6.20
2018-02-17T16:45:19.342Z,5.80
2018-02-17T16:47:48.463Z,5.30
2018-02-17T16:50:16.804Z,5.30
2018-02-17T16:52:45.881Z,4.80
2018-02-17T16:55:14.226Z,4.80
2018-02-17T16:57:42.527Z,4.60
2018-02-17T17:00:10.888Z,4.50
2018-02-17T17:02:40.031Z,4.30
2018-02-17T17:05:09.191Z,4.10
2018-02-17T17:07:37.521Z,4.00
2018-02-17T17:10:05.826Z,3.90
2018-02-17T17:12:35.050Z,3.60
2018-02-17T17:15:03.398Z,3.60
2018-02-17T17:17:31.686Z,3.50
2018-02-17T17:20:00.788Z,3.20
2018-02-17T17:22:29.999Z,3.10
2018-02-17T17:24:58.334Z,3.10
2018-02-17T17:27:26.651Z,3.00
2018-02-17T17:29:55.748Z,2.80
2018-02-17T17:32:24.867Z,2.70
2018-02-17T17:34:53.188Z,2.70
2018-02-17T17:37:22.412Z,2.70
2018-02-17T17:39:50.865Z,2.60
2018-02-17T17:42:19.185Z,2.60
2018-02-17T17:44:48.307Z,2.60
2018-02-17T17:47:17.358Z,2.60
2018-02-17T17:49:45.659Z,2.50
2018-02-17T17:52:13.971Z,2.50
2018-02-17T17:54:42.292Z,2.40
2018-02-17T17:57:10.608Z,2.20
2018-02-17T17:59:39.700Z,1.90
2018-02-17T18:02:08.029Z,1.90
2018-02-17T18:04:36.341Z,1.80
2018-02-17T18:07:04.682Z,1.60
2018-02-17T18:09:33.000Z,1.50
2018-02-17T18:12:01.327Z,1.50
2018-02-17T18:14:29.644Z,1.40
2018-02-17T18:16:57.956Z,1.40
2018-02-17T18:19:26.332Z,1.30
2018-02-17T18:21:54.643Z,1.30
2018-02-17T18:24:23.804Z,1.30
2018-02-17T18:26:52.162Z,1.30
2018-02-17T18:29:20.495Z,1.20
2018-02-17T18:31:49.578Z,1.00
2018-02-17T18:34:17.895Z,1.00
2018-02-17T18:36:46.208Z,1.00
2018-02-17T18:39:14.538Z,1.00
2018-02-17T18:41:43.691Z,0.90
2018-02-17T18:44:12.758Z,0.80
2018-02-17T18:46:41.061Z,0.80
2018-02-17T18:49:09.376Z,0.70
2018-02-17T18:51:37.682Z,0.60
2018-02-17T18:54:06.836Z,0.60
2018-02-17T18:56:35.260Z,0.50
2018-02-17T18:59:03.595Z,0.50
2018-02-17T19:01:31.883Z,0.50
2018-02-17T19:04:01.032Z,0.50
2018-02-17T19:06:30.136Z,0.50
2018-02-17T19:08:59.240Z,0.50
2018-02-17T19:11:28.356Z,0.40
2018-02-17T19:13:56.664Z,0.40
2018-02-17T19:16:24.986Z,0.50
2018-02-17T19:18:54.074Z,0.50
2018-02-17T19:21:23.210Z,0.50
2018-02-17T19:23:51.557Z,0.50
2018-02-17T19:26:20.667Z,0.40
2018-02-17T19:28:50.528Z,0.40
2018-02-17T19:31:18.889Z,0.30
2018-02-17T19:33:48.142Z,0.30
2018-02-17T19:36:17.209Z,0.20
2018-02-17T19:38:45.506Z,0.20
2018-02-17T19:41:13.881Z,0.20
2018-02-17T19:43:42.238Z,0.20
2018-02-17T19:46:10.576Z,0.10
2018-02-17T19:48:38.897Z,0.20
2018-02-17T19:51:07.211Z,0.20
2018-02-17T19:53:35.524Z,0.20
2018-02-17T19:56:04.628Z,0.20
2018-02-17T19:58:33.742Z,0.20
2018-02-17T20:01:02.049Z,0.20
2018-02-17T20:03:30.389Z,0.30
2018-02-17T20:05:59.450Z,0.30
2018-02-17T20:08:27.794Z,0.20
2018-02-17T20:10:56.196Z,0.20
2018-02-17T20:13:24.582Z,0.20
2018-02-17T20:15:52.896Z,0.10
2018-02-17T20:18:21.988Z,0.10
2018-02-17T20:20:50.295Z,0.00
2018-02-17T20:23:19.471Z,0.00
2018-02-17T20:25:48.528Z,0.00
2018-02-17T20:28:16.868Z,0.00
2018-02-17T20:30:45.198Z,0.00
2018-02-17T20:33:13.526Z,0.00
2018-02-17T20:35:41.866Z,0.00
2018-02-17T20:38:16.864Z,0.00
2018-02-17T20:40:45.340Z,0.00
2018-02-17T20:43:14.430Z,-0.10
2018-02-17T20:45:43.540Z,-0.10
2018-02-17T20:48:12.620Z,-0.10
2018-02-17T20:50:41.758Z,-0.20
2018-02-17T20:53:10.115Z,-0.20
2018-02-17T20:55:39.248Z,-0.30
2018-02-17T20:58:07.633Z,-0.30
2018-02-17T21:00:36.031Z,-0.30
2018-02-17T21:03:05.106Z,-0.30
2018-02-17T21:05:33.497Z,-0.30
2018-02-17T21:08:01.806Z,-0.30
2018-02-17T21:10:30.121Z,-0.30
2018-02-17T21:12:59.204Z,-0.30
2018-02-17T21:15:27.528Z,-0.40
2018-02-17T21:17:55.955Z,-0.40
2018-02-17T21:20:24.264Z,-0.50
2018-02-17T21:22:53.336Z,-0.50
2018-02-17T21:25:21.677Z,-0.50
2018-02-17T21:27:50.112Z,-0.60
2018-02-17T21:30:18.646Z,-0.60
2018-02-17T21:32:46.948Z,-0.60
2018-02-17T21:35:18.614Z,-0.60
2018-02-17T21:37:46.963Z,-0.70
2018-02-17T21:40:15.348Z,-0.60
2018-02-17T21:42:43.684Z,-0.60
2018-02-17T21:45:12.008Z,-0.60
2018-02-17T21:47:40.322Z,-0.50
2018-02-17T21:50:08.680Z,-0.50
2018-02-17T21:52:36.980Z,-0.50
2018-02-17T21:55:05.280Z,-0.50
2018-02-17T21:57:34.258Z,-0.40
2018-02-17T22:00:02.629Z,-0.30
2018-02-17T22:02:31.672Z,-0.30
2018-02-17T22:05:00.033Z,-0.30
2018-02-17T22:07:28.469Z,-0.30
2018-02-17T22:09:56.790Z,-0.30
2018-02-17T22:12:25.122Z,-0.20
2018-02-17T22:17:28.704Z,-0.30
2018-02-17T22:19:57.049Z,-0.30
2018-02-17T22:22:25.421Z,-0.40
2018-02-17T22:24:53.726Z,-0.40
2018-02-17T22:27:22.058Z,-0.40
2018-02-17T22:29:51.278Z,-0.50
2018-02-17T22:32:19.605Z,-0.50
2018-02-17T22:34:47.928Z,-0.50
2018-02-17T22:37:17.043Z,-0.50
2018-02-17T22:39:45.376Z,-0.50
2018-02-17T22:42:13.720Z,-0.40
2018-02-17T22:44:42.039Z,-0.40
2018-02-17T22:47:10.356Z,-0.40
2018-02-17T22:49:38.700Z,-0.40
2018-02-17T22:52:07.014Z,-0.40
2018-02-17T22:54:36.253Z,-0.40
2018-02-17T22:57:04.582Z,-0.40
2018-02-17T22:59:33.684Z,-0.40
2018-02-17T23:02:02.074Z,-0.40
2018-02-17T23:04:31.156Z,-0.40
2018-02-17T23:07:00.254Z,-0.40
2018-02-17T23:09:29.349Z,-0.40
2018-02-17T23:11:58.436Z,-0.40
2018-02-17T23:14:26.747Z,-0.40
2018-02-17T23:16:55.885Z,-0.40
2018-02-17T23:19:24.213Z,-0.40
2018-02-17T23:21:52.617Z,-0.40
2018-02-17T23:24:21.093Z,-0.40
2018-02-17T23:26:49.448Z,-0.40
2018-02-17T23:29:17.802Z,-0.40
2018-02-17T23:31:46.270Z,-0.40
2018-02-17T23:34:14.578Z,-0.50
2018-02-17T23:36:42.928Z,-0.50
2018-02-17T23:39:12.028Z,-0.50
2018-02-17T23:41:40.356Z,-0.50
2018-02-17T23:44:08.729Z,-0.60
2018-02-17T23:46:37.018Z,-0.50
2018-02-17T23:49:05.499Z,-0.50
2018-02-17T23:51:33.896Z,-0.40
2018-02-17T23:54:02.246Z,-0.40
2018-02-17T23:56:30.571Z,-0.30
2018-02-17T23:58:59.663Z,-0.20
